Hughesville, Missouri
Current Conditions -  °F | °C
As of 4:53 AM on Friday 31 Oct 2014 (Local Time) from KDMO Reporting Station
Light Rain Light Rain  
Wind Chill: 42°   Ceiling: 2700
Heat Index: 49°   Visibility: 10mi
Dew Point: 39°   Wind: 22mph
Humidity: 69%   Direction: 350°N
Pressure: 30.24"   Gusts: 30mph
Location:  38.84°N, 93.3°W
Report Text: KDMO 310953Z AUTO 35019G26KT 10SM -RA BKN027 OVC050 09/04 A3024 RMK AO2 PK WND 35030/0936 RAB10 SLP240 P0000 T00940039
Loading
Personal Weather Stations






























Interactive Weather Map
Tropical Storm Tracking
New forecast layout! Learn more

10-Day Weather Forecast

Advertisements
Track Severe Weather on mobile